Time;durP1;ratioP1;P1;durP2;ratioP2;P2;SDS_P1;SDS_P2;PMS_P1;PMS_P2;Temp;Humidity;BMP_temperature;BMP_pressure;BME280_temperature;BME280_humidity;BME280_pressure;Samples;Min_cycle;Max_cycle;Signal;HPM_P1;HPM_P2
2022/11/16 05:32:07;;;;;;;;;3.00;0.00;;;;;;;;5192803;23;45461;-60
2022/11/16 05:34:35;;;;;;;;;1.33;0.00;;;;;;;;5015251;28;45431;-60
2022/11/16 05:37:01;;;;;;;;;2.00;0.00;;;;;;;;5012632;28;45206;-60
2022/11/16 05:39:26;;;;;;;;;3.00;1.00;;;;;;;;4997544;28;45427;-60
2022/11/16 05:41:52;;;;;;;;;1.33;1.00;;;;;;;;5017593;28;45561;-60
2022/11/16 05:44:17;;;;;;;;;3.00;0.00;;;;;;;;5019470;28;45558;-60
2022/11/16 05:46:42;;;;;;;;;3.33;1.00;;;;;;;;5017742;28;47077;-60
2022/11/16 05:49:08;;;;;;;;;2.67;1.00;;;;;;;;5019722;28;45459;-60
2022/11/16 05:51:34;;;;;;;;;1.00;1.00;;;;;;;;5011629;28;45516;-60
2022/11/16 05:53:59;;;;;;;;;2.33;2.00;;;;;;;;5011834;28;45371;-60
2022/11/16 05:56:24;;;;;;;;;2.33;1.00;;;;;;;;5017081;28;45531;-60
2022/11/16 05:58:50;;;;;;;;;1.00;1.00;;;;;;;;5002417;28;45761;-60
2022/11/16 06:01:15;;;;;;;;;0.00;0.00;;;;;;;;5013381;28;45584;-60
2022/11/16 06:03:40;;;;;;;;;1.33;1.00;;;;;;;;5025297;28;45830;-60
2022/11/16 06:06:06;;;;;;;;;1.00;1.00;;;;;;;;5018841;28;45367;-60
2022/11/16 06:08:31;;;;;;;;;4.67;1.00;;;;;;;;5016716;28;45318;-60
2022/11/16 06:11:00;;;;;;;;;0.00;0.00;;;;;;;;5017042;28;45400;-60
2022/11/16 06:13:25;;;;;;;;;2.67;1.00;;;;;;;;5001442;28;45532;-60
2022/11/16 06:15:50;;;;;;;;;0.67;0.00;;;;;;;;5027027;28;46278;-60
2022/11/16 06:18:15;;;;;;;;;2.00;1.00;;;;;;;;5014642;28;45443;-60
2022/11/16 06:20:40;;;;;;;;;4.67;1.00;;;;;;;;5018696;28;45432;-60
2022/11/16 06:23:06;;;;;;;;;5.00;1.00;;;;;;;;5016510;28;45214;-60
2022/11/16 06:25:31;;;;;;;;;2.00;1.00;;;;;;;;5019078;28;46171;-60
2022/11/16 06:27:57;;;;;;;;;0.33;0.33;;;;;;;;5015833;28;45774;-60
2022/11/16 06:30:22;;;;;;;;;0.33;0.33;;;;;;;;5016195;28;45329;-60
2022/11/16 06:32:47;;;;;;;;;1.33;1.00;;;;;;;;4997998;28;45651;-59
2022/11/16 06:35:13;;;;;;;;;1.00;1.00;;;;;;;;5015987;28;46264;-59
2022/11/16 06:37:38;;;;;;;;;1.33;1.00;;;;;;;;5018145;28;45404;-59
2022/11/16 06:40:03;;;;;;;;;2.00;2.00;;;;;;;;5014934;28;45249;-59
2022/11/16 06:42:28;;;;;;;;;1.67;1.33;;;;;;;;5012550;28;45364;-60
2022/11/16 06:44:54;;;;;;;;;3.67;1.00;;;;;;;;5012205;28;46119;-60
2022/11/16 06:47:19;;;;;;;;;3.00;0.00;;;;;;;;5014136;28;45363;-60
2022/11/16 06:49:45;;;;;;;;;5.33;2.67;;;;;;;;5017731;28;45447;-60
2022/11/16 06:52:11;;;;;;;;;2.67;0.00;;;;;;;;5011477;28;45474;-62
2022/11/16 06:54:36;;;;;;;;;2.00;1.00;;;;;;;;5017178;28;45419;-60
2022/11/16 06:57:01;;;;;;;;;3.33;1.00;;;;;;;;5017016;28;45556;-61
2022/11/16 06:59:26;;;;;;;;;3.33;1.00;;;;;;;;5007682;28;45597;-60
2022/11/16 07:01:51;;;;;;;;;3.33;1.00;;;;;;;;5015872;28;45346;-60
2022/11/16 07:07:19;;;;;;;;;2.67;1.00;;;;;;;;5007636;28;45545;-60
2022/11/16 07:09:44;;;;;;;;;3.00;1.00;;;;;;;;5020104;28;45566;-60
2022/11/16 07:12:10;;;;;;;;;1.33;1.33;;;;;;;;5014466;28;45745;-60
2022/11/16 07:14:35;;;;;;;;;2.33;0.67;;;;;;;;5021705;28;46205;-59
2022/11/16 07:17:00;;;;;;;;;1.00;1.00;;;;;;;;5020412;28;45379;-59
2022/11/16 07:19:25;;;;;;;;;3.00;2.00;;;;;;;;5021553;28;45300;-60
2022/11/16 07:21:50;;;;;;;;;2.00;2.00;;;;;;;;5020687;28;45368;-59
2022/11/16 07:24:16;;;;;;;;;1.67;1.67;;;;;;;;5020294;28;45427;-59
2022/11/16 07:26:41;;;;;;;;;5.00;2.00;;;;;;;;5015530;28;45490;-59
2022/11/16 07:29:06;;;;;;;;;2.00;2.00;;;;;;;;5018630;28;45622;-58
2022/11/16 07:31:31;;;;;;;;;4.67;3.33;;;;;;;;5002044;28;45538;-58
2022/11/16 07:33:56;;;;;;;;;1.67;1.00;;;;;;;;5020008;28;46037;-59
2022/11/16 07:36:22;;;;;;;;;3.67;2.67;;;;;;;;5003136;28;45360;-58
2022/11/16 07:38:47;;;;;;;;;2.67;1.67;;;;;;;;5020797;28;45357;-59
2022/11/16 07:41:16;;;;;;;;;3.00;2.00;;;;;;;;5016359;28;45495;-59
2022/11/16 07:43:42;;;;;;;;;7.00;3.00;;;;;;;;5017808;28;46226;-58
2022/11/16 07:46:11;;;;;;;;;3.00;3.00;;;;;;;;5020574;28;45515;-58
2022/11/16 07:48:37;;;;;;;;;6.00;3.00;;;;;;;;5021256;28;45588;-58
2022/11/16 07:51:06;;;;;;;;;6.67;3.00;;;;;;;;5019902;28;45353;-58
2022/11/16 07:53:32;;;;;;;;;4.00;2.33;;;;;;;;5020641;28;47436;-58
2022/11/16 07:55:57;;;;;;;;;3.00;3.00;;;;;;;;5017169;28;45788;-59
2022/11/16 07:58:23;;;;;;;;;5.00;3.00;;;;;;;;5014840;28;45303;-58
2022/11/16 08:00:48;;;;;;;;;5.00;3.00;;;;;;;;5024115;28;45308;-59
2022/11/16 08:03:14;;;;;;;;;3.00;3.00;;;;;;;;5011610;28;45372;-58
2022/11/16 08:05:39;;;;;;;;;2.33;2.33;;;;;;;;5012568;28;45392;-58
2022/11/16 08:08:04;;;;;;;;;3.00;2.00;;;;;;;;5011480;28;45467;-58
2022/11/16 08:10:30;;;;;;;;;8.67;4.00;;;;;;;;5012180;28;45231;-58
2022/11/16 08:12:55;;;;;;;;;2.33;2.33;;;;;;;;5016713;28;45627;-59
2022/11/16 08:15:20;;;;;;;;;4.33;3.00;;;;;;;;5015747;28;45293;-59
2022/11/16 08:17:45;;;;;;;;;3.67;3.00;;;;;;;;5010690;28;46036;-59
2022/11/16 08:20:11;;;;;;;;;6.33;2.67;;;;;;;;5012455;28;45319;-58
2022/11/16 08:22:36;;;;;;;;;4.00;2.00;;;;;;;;5016570;28;45558;-59
2022/11/16 08:25:01;;;;;;;;;4.00;1.00;;;;;;;;5017374;28;45352;-59
2022/11/16 08:27:27;;;;;;;;;2.33;2.33;;;;;;;;5013803;28;46322;-59
2022/11/16 08:29:52;;;;;;;;;8.33;2.00;;;;;;;;5016398;28;45240;-60
2022/11/16 08:32:17;;;;;;;;;4.00;2.67;;;;;;;;5017010;28;45423;-59
2022/11/16 08:34:43;;;;;;;;;3.33;3.33;;;;;;;;5013701;28;45489;-59
2022/11/16 08:37:08;;;;;;;;;5.67;2.00;;;;;;;;5027252;28;46000;-59
2022/11/16 08:39:33;;;;;;;;;3.33;3.33;;;;;;;;5017354;28;45325;-59
2022/11/16 08:41:58;;;;;;;;;8.67;3.67;;;;;;;;5014639;28;45492;-59
2022/11/16 08:44:23;;;;;;;;;7.00;3.00;;;;;;;;5013555;28;45423;-59
2022/11/16 08:46:48;;;;;;;;;5.67;1.67;;;;;;;;5017043;28;45343;-59
2022/11/16 08:49:14;;;;;;;;;3.00;1.33;;;;;;;;5018430;28;45238;-59
2022/11/16 08:51:39;;;;;;;;;2.67;2.67;;;;;;;;5018895;28;46237;-59
2022/11/16 08:54:05;;;;;;;;;3.33;2.00;;;;;;;;5019004;28;45407;-60
2022/11/16 08:56:30;;;;;;;;;5.00;4.33;;;;;;;;5018784;28;45693;-59
2022/11/16 08:58:55;;;;;;;;;4.67;4.00;;;;;;;;5017618;28;45451;-59
2022/11/16 09:01:22;;;;;;;;;3.67;3.33;;;;;;;;5017495;28;45433;-60
2022/11/16 09:03:47;;;;;;;;;5.00;3.33;;;;;;;;5009748;28;45486;-59
2022/11/16 09:06:13;;;;;;;;;3.67;2.00;;;;;;;;5013937;28;45502;-59
2022/11/16 09:08:39;;;;;;;;;4.33;2.00;;;;;;;;5009518;28;45424;-59
2022/11/16 09:11:05;;;;;;;;;235.00;204.67;;;;;;;;5019802;28;46425;-59
2022/11/16 09:13:30;;;;;;;;;4.33;3.00;;;;;;;;5018251;28;45860;-59
2022/11/16 09:15:56;;;;;;;;;2.33;2.33;;;;;;;;5017160;28;45294;-59
2022/11/16 09:18:21;;;;;;;;;4.33;2.67;;;;;;;;5016507;28;45632;-59
2022/11/16 09:20:46;;;;;;;;;3.00;3.00;;;;;;;;5007246;28;46855;-59
2022/11/16 09:23:11;;;;;;;;;5.00;2.00;;;;;;;;5015135;28;45551;-59
2022/11/16 09:25:37;;;;;;;;;1.00;1.00;;;;;;;;5007267;28;45591;-59
2022/11/16 09:28:02;;;;;;;;;2.67;1.67;;;;;;;;5018360;28;45587;-59
2022/11/16 09:30:27;;;;;;;;;4.00;2.00;;;;;;;;5018497;28;45561;-59
2022/11/16 09:32:52;;;;;;;;;2.00;2.00;;;;;;;;5016042;28;45279;-59
2022/11/16 09:35:19;;;;;;;;;3.00;2.00;;;;;;;;5018842;28;45562;-59
2022/11/16 09:37:44;;;;;;;;;3.67;2.33;;;;;;;;5020901;28;45356;-59
2022/11/16 09:40:11;;;;;;;;;4.67;1.67;;;;;;;;5018592;28;46282;-59
2022/11/16 09:43:00;;;;;;;;;1.00;1.00;;;;;;;;5007386;28;45297;-59
2022/11/16 09:45:48;;;;;;;;;3.00;2.00;;;;;;;;5004186;28;45417;-58
2022/11/16 09:48:15;;;;;;;;;4.00;3.00;;;;;;;;4999271;28;45550;-58
2022/11/16 09:50:49;;;;;;;;;1.67;1.67;;;;;;;;5016635;28;47001;-58
2022/11/16 09:53:30;;;;;;;;;6.00;2.67;;;;;;;;5010499;28;45304;-58
2022/11/16 09:55:57;;;;;;;;;3.00;2.00;;;;;;;;5016526;28;45516;-58
2022/11/16 09:58:40;;;;;;;;;2.67;1.00;;;;;;;;5016195;28;45523;-58
2022/11/16 10:01:32;;;;;;;;;1.33;1.00;;;;;;;;5014272;28;45722;-59
2022/11/16 10:04:02;;;;;;;;;3.00;2.00;;;;;;;;4989348;28;45644;-60
2022/11/16 10:06:37;;;;;;;;;3.67;2.00;;;;;;;;5011297;28;45273;-60
2022/11/16 10:09:02;;;;;;;;;3.00;1.00;;;;;;;;5012827;28;45574;-60
2022/11/16 10:11:42;;;;;;;;;3.00;2.00;;;;;;;;5010002;28;46710;-60
2022/11/16 10:14:18;;;;;;;;;2.67;0.33;;;;;;;;5026256;28;45370;-61
2022/11/16 10:17:00;;;;;;;;;3.00;1.33;;;;;;;;5015039;28;45529;-60
2022/11/16 10:19:32;;;;;;;;;3.00;2.00;;;;;;;;5009828;28;45241;-60
2022/11/16 10:22:08;;;;;;;;;2.00;1.00;;;;;;;;5017285;28;46363;-60
2022/11/16 10:24:46;;;;;;;;;1.67;1.67;;;;;;;;5018302;28;45305;-61
2022/11/16 10:27:34;;;;;;;;;2.67;1.00;;;;;;;;5017554;28;45274;-60
2022/11/16 10:30:05;;;;;;;;;1.33;1.00;;;;;;;;5007101;28;45454;-60
2022/11/16 10:32:32;;;;;;;;;3.00;1.33;;;;;;;;5014094;28;46139;-61
2022/11/16 10:35:04;;;;;;;;;3.00;0.67;;;;;;;;5014618;28;45509;-61
2022/11/16 10:37:31;;;;;;;;;2.00;0.00;;;;;;;;5015321;28;47026;-60
2022/11/16 10:39:56;;;;;;;;;1.00;1.00;;;;;;;;5008595;28;45514;-60
2022/11/16 10:42:28;;;;;;;;;0.00;0.00;;;;;;;;5014983;28;45583;-60
2022/11/16 10:44:58;;;;;;;;;2.00;1.33;;;;;;;;5019478;28;45582;-59
2022/11/16 10:47:45;;;;;;;;;5.00;1.67;;;;;;;;5016718;28;45405;-59
2022/11/16 10:50:26;;;;;;;;;1.67;0.67;;;;;;;;4988833;28;45865;-59
2022/11/16 10:52:51;;;;;;;;;1.33;1.00;;;;;;;;5015486;28;45353;-59
2022/11/16 10:55:18;;;;;;;;;1.00;1.00;;;;;;;;5020062;28;45508;-61
2022/11/16 10:58:00;;;;;;;;;1.33;0.00;;;;;;;;5017878;28;45721;-59
2022/11/16 11:00:34;;;;;;;;;1.67;0.33;;;;;;;;5020569;28;45205;-59
2022/11/16 11:02:59;;;;;;;;;0.67;0.67;;;;;;;;5013951;28;46464;-60
2022/11/16 11:05:25;;;;;;;;;1.33;0.00;;;;;;;;5018223;28;45574;-60
2022/11/16 11:08:11;;;;;;;;;3.00;1.00;;;;;;;;5017039;28;45235;-60
2022/11/16 11:10:38;;;;;;;;;1.00;1.00;;;;;;;;5020579;28;46086;-59
2022/11/16 11:13:23;;;;;;;;;1.00;0.00;;;;;;;;5020420;28;46417;-59
2022/11/16 11:15:50;;;;;;;;;1.00;1.00;;;;;;;;5019935;28;46105;-59
2022/11/16 11:18:18;;;;;;;;;4.00;2.00;;;;;;;;5014837;28;46736;-58
2022/11/16 11:20:45;;;;;;;;;2.67;1.67;;;;;;;;5013767;28;45532;-59
2022/11/16 11:23:15;;;;;;;;;1.33;0.67;;;;;;;;5015823;28;46038;-60
2022/11/16 11:25:48;;;;;;;;;0.67;0.67;;;;;;;;5014611;28;45332;-60
2022/11/16 11:28:19;;;;;;;;;0.67;0.67;;;;;;;;5016787;28;45801;-59
2022/11/16 11:30:57;;;;;;;;;3.33;1.00;;;;;;;;5012688;28;45601;-59
2022/11/16 11:33:23;;;;;;;;;2.33;1.00;;;;;;;;5015865;28;45971;-59
2022/11/16 11:36:00;;;;;;;;;1.00;0.67;;;;;;;;5014659;28;45499;-58
2022/11/16 11:38:26;;;;;;;;;2.00;1.67;;;;;;;;5019316;28;46674;-58
2022/11/16 11:40:58;;;;;;;;;4.00;1.00;;;;;;;;5001357;28;45541;-58
2022/11/16 11:43:24;;;;;;;;;1.67;1.67;;;;;;;;5015981;28;46072;-60
2022/11/16 11:46:02;;;;;;;;;5.67;2.00;;;;;;;;5014757;28;45355;-60
2022/11/16 11:48:36;;;;;;;;;1.00;0.67;;;;;;;;5024184;28;45452;-60
2022/11/16 11:51:01;;;;;;;;;1.00;1.00;;;;;;;;5023092;28;45476;-60
2022/11/16 11:53:39;;;;;;;;;0.67;0.67;;;;;;;;5011616;28;46181;-60
2022/11/16 11:56:05;;;;;;;;;1.33;1.33;;;;;;;;5013384;28;45742;-59
2022/11/16 11:58:36;;;;;;;;;2.67;1.00;;;;;;;;5015620;28;45600;-59
2022/11/16 12:01:19;;;;;;;;;0.33;0.33;;;;;;;;5015261;28;45458;-59
2022/11/16 12:04:05;;;;;;;;;2.67;1.00;;;;;;;;5016087;28;45388;-59
2022/11/16 12:06:46;;;;;;;;;1.00;0.67;;;;;;;;4976026;28;47043;-59
2022/11/16 12:09:26;;;;;;;;;4.33;0.67;;;;;;;;5004240;28;45492;-59
2022/11/16 12:11:51;;;;;;;;;2.00;2.00;;;;;;;;5012097;28;45399;-60
2022/11/16 12:14:27;;;;;;;;;3.50;1.50;;;;;;;;4998729;28;47096;-60
2022/11/16 12:17:00;;;;;;;;;2.33;1.67;;;;;;;;5013779;28;45298;-60
2022/11/16 12:19:31;;;;;;;;;3.00;2.00;;;;;;;;5015205;28;45447;-60
2022/11/16 12:22:14;;;;;;;;;3.00;1.00;;;;;;;;5013150;28;45602;-61
2022/11/16 12:24:40;;;;;;;;;1.67;1.67;;;;;;;;5010504;28;46136;-59
2022/11/16 12:27:25;;;;;;;;;2.50;1.50;;;;;;;;5011873;28;45528;-59
2022/11/16 12:29:51;;;;;;;;;1.33;1.33;;;;;;;;4998715;28;45487;-60
2022/11/16 12:32:16;;;;;;;;;4.67;1.00;;;;;;;;5014675;28;45462;-59
2022/11/16 12:34:41;;;;;;;;;4.00;3.67;;;;;;;;5014434;28;46249;-60
2022/11/16 12:37:06;;;;;;;;;0.50;0.00;;;;;;;;5015855;28;45585;-59
2022/11/16 12:40:00;;;;;;;;;2.00;0.75;;;;;;;;5009891;28;45498;-59
2022/11/16 12:42:32;;;;;;;;;2.67;2.33;;;;;;;;5016908;28;45454;-60
2022/11/16 12:45:15;;;;;;;;;0.33;0.33;;;;;;;;5014682;28;47002;-60
2022/11/16 12:47:40;;;;;;;;;2.00;2.00;;;;;;;;5005475;28;45463;-60
2022/11/16 12:50:12;;;;;;;;;0.67;0.67;;;;;;;;5014912;28;45395;-60
2022/11/16 12:53:05;;;;;;;;;3.67;0.67;;;;;;;;5008995;28;45669;-60
2022/11/16 12:55:49;;;;;;;;;2.67;1.00;;;;;;;;5013152;28;45451;-60
2022/11/16 12:58:17;;;;;;;;;1.33;1.33;;;;;;;;5015129;28;45542;-60
2022/11/16 13:00:56;;;;;;;;;4.67;1.67;;;;;;;;5015640;28;45761;-60
2022/11/16 13:03:41;;;;;;;;;2.67;1.00;;;;;;;;5015722;28;45585;-60
2022/11/16 13:06:08;;;;;;;;;2.00;1.00;;;;;;;;5012921;28;46390;-59
2022/11/16 13:08:41;;;;;;;;;6.67;0.67;;;;;;;;5012138;28;45294;-59
2022/11/16 13:11:12;;;;;;;;;8.00;2.00;;;;;;;;5012652;28;45441;-59
2022/11/16 13:13:38;;;;;;;;;4.00;2.00;;;;;;;;5009514;28;45525;-60
2022/11/16 13:16:04;;;;;;;;;3.33;1.33;;;;;;;;5013825;28;45865;-60
2022/11/16 13:18:31;;;;;;;;;2.33;2.00;;;;;;;;5014805;28;45308;-60
2022/11/16 13:20:59;;;;;;;;;5.00;2.00;;;;;;;;5015912;28;46078;-60
2022/11/16 13:23:30;;;;;;;;;0.67;0.67;;;;;;;;5015468;28;45439;-60
2022/11/16 13:25:58;;;;;;;;;2.00;0.33;;;;;;;;5012163;28;46374;-60
2022/11/16 13:28:35;;;;;;;;;8.33;4.00;;;;;;;;5014120;28;45443;-59
2022/11/16 13:31:04;;;;;;;;;6.00;1.33;;;;;;;;5011663;28;47093;-58
2022/11/16 13:33:49;;;;;;;;;3.00;2.33;;;;;;;;5014213;28;45482;-59
2022/11/16 13:36:33;;;;;;;;;2.33;1.00;;;;;;;;5014402;28;45380;-59
2022/11/16 13:38:58;;;;;;;;;4.00;1.33;;;;;;;;5005044;28;46600;-59
2022/11/16 13:41:34;;;;;;;;;3.00;2.00;;;;;;;;5013357;28;45557;-59
2022/11/16 13:44:00;;;;;;;;;3.00;1.00;;;;;;;;5016813;28;45555;-59
2022/11/16 13:46:44;;;;;;;;;3.00;3.00;;;;;;;;5016125;28;46348;-59
2022/11/16 13:49:24;;;;;;;;;6.00;5.00;;;;;;;;5020652;28;45391;-59
2022/11/16 13:51:51;;;;;;;;;4.67;1.00;;;;;;;;5011275;28;45368;-59
2022/11/16 13:54:25;;;;;;;;;5.33;4.00;;;;;;;;5017609;28;45573;-60
2022/11/16 13:56:50;;;;;;;;;2.00;2.00;;;;;;;;5013524;28;45593;-60
2022/11/16 13:59:21;;;;;;;;;3.67;1.00;;;;;;;;4998599;28;45502;-60
2022/11/16 14:01:53;;;;;;;;;4.00;2.00;;;;;;;;5015389;28;45515;-60
2022/11/16 14:04:42;;;;;;;;;3.00;3.00;;;;;;;;5011517;28;45679;-59
2022/11/16 14:07:26;;;;;;;;;2.67;2.67;;;;;;;;4977669;28;45772;-60
2022/11/16 14:09:51;;;;;;;;;1.67;1.67;;;;;;;;5016626;28;45537;-60
2022/11/16 14:12:35;;;;;;;;;5.33;2.00;;;;;;;;5016058;28;45490;-59
2022/11/16 14:15:12;;;;;;;;;4.67;1.67;;;;;;;;5014045;28;46497;-60
2022/11/16 14:17:56;;;;;;;;;2.00;1.33;;;;;;;;5016570;28;46139;-60
2022/11/16 14:20:37;;;;;;;;;6.00;3.00;;;;;;;;5013738;28;45416;-60
2022/11/16 14:23:05;;;;;;;;;3.67;1.00;;;;;;;;5015164;28;45656;-60
2022/11/16 14:25:51;;;;;;;;;3.00;2.00;;;;;;;;5016081;28;45348;-60
2022/11/16 14:28:19;;;;;;;;;4.67;3.00;;;;;;;;5012092;28;46263;-59
2022/11/16 14:30:55;;;;;;;;;5.33;3.67;;;;;;;;5016172;28;45372;-60
2022/11/16 14:33:27;;;;;;;;;11.00;2.67;;;;;;;;5014428;28;45392;-59
2022/11/16 14:35:52;;;;;;;;;9.33;2.67;;;;;;;;5011285;28;45540;-60
2022/11/16 14:38:37;;;;;;;;;4.00;3.00;;;;;;;;5016422;28;46262;-60
2022/11/16 14:41:10;;;;;;;;;6.67;3.00;;;;;;;;5017517;28;45277;-60
2022/11/16 14:43:40;;;;;;;;;6.67;1.33;;;;;;;;5016721;28;45710;-59
2022/11/16 14:46:14;;;;;;;;;0.67;0.67;;;;;;;;5021367;28;45390;-60
2022/11/16 14:48:44;;;;;;;;;4.67;2.67;;;;;;;;5015566;28;46414;-59
2022/11/16 14:51:14;;;;;;;;;3.67;3.33;;;;;;;;5011250;28;45622;-59
2022/11/16 14:53:43;;;;;;;;;5.00;3.33;;;;;;;;5016486;28;45720;-60
2022/11/16 14:56:10;;;;;;;;;6.00;4.00;;;;;;;;5015209;28;45693;-59
2022/11/16 14:58:35;;;;;;;;;3.67;2.67;;;;;;;;5015223;28;45841;-59
2022/11/16 15:01:02;;;;;;;;;5.00;3.33;;;;;;;;5024932;28;45430;-58
2022/11/16 15:03:30;;;;;;;;;5.67;4.67;;;;;;;;5019147;28;46420;-60
2022/11/16 15:05:57;;;;;;;;;7.33;3.33;;;;;;;;5014264;28;45811;-59
2022/11/16 15:08:25;;;;;;;;;3.00;1.67;;;;;;;;5021053;28;45598;-61
2022/11/16 15:10:51;;;;;;;;;5.67;2.00;;;;;;;;5022863;28;45662;-58
2022/11/16 15:13:17;;;;;;;;;4.00;3.00;;;;;;;;5017594;28;45602;-58
2022/11/16 15:15:43;;;;;;;;;7.33;5.00;;;;;;;;5014242;28;45687;-57
2022/11/16 15:18:11;;;;;;;;;3.67;3.67;;;;;;;;5013412;28;46766;-57
2022/11/16 15:20:45;;;;;;;;;5.00;2.67;;;;;;;;5015242;28;45405;-58
2022/11/16 15:23:12;;;;;;;;;4.00;3.33;;;;;;;;5016051;28;45408;-57
2022/11/16 15:25:41;;;;;;;;;7.67;4.00;;;;;;;;5023707;28;45388;-57
2022/11/16 15:28:17;;;;;;;;;5.00;5.00;;;;;;;;5009340;28;46219;-57
2022/11/16 15:30:50;;;;;;;;;5.00;4.00;;;;;;;;5011402;28;45349;-58
2022/11/16 15:33:17;;;;;;;;;6.33;4.00;;;;;;;;5019808;28;45411;-56
2022/11/16 15:35:43;;;;;;;;;9.33;3.00;;;;;;;;5018954;28;45298;-58
2022/11/16 15:38:20;;;;;;;;;7.33;4.67;;;;;;;;5016009;28;46143;-57
2022/11/16 15:40:47;;;;;;;;;5.33;5.00;;;;;;;;5018892;28;45448;-57
2022/11/16 15:43:13;;;;;;;;;4.00;4.00;;;;;;;;5019989;28;45591;-57
2022/11/16 15:45:40;;;;;;;;;3.67;3.67;;;;;;;;5018547;28;46027;-57
2022/11/16 15:48:06;;;;;;;;;5.00;5.00;;;;;;;;5019463;28;45379;-56
2022/11/16 15:50:31;;;;;;;;;7.00;5.67;;;;;;;;5016356;28;45269;-58
2022/11/16 15:52:58;;;;;;;;;5.33;4.67;;;;;;;;5016208;28;45564;-58
2022/11/16 15:55:23;;;;;;;;;7.00;4.00;;;;;;;;5001972;28;45455;-58
2022/11/16 15:57:58;;;;;;;;;2.33;2.33;;;;;;;;5020477;28;45978;-58
2022/11/16 16:00:24;;;;;;;;;6.33;4.67;;;;;;;;5018268;28;45225;-57
2022/11/16 16:02:50;;;;;;;;;3.33;1.00;;;;;;;;5017465;28;45356;-58
2022/11/16 16:05:19;;;;;;;;;6.00;4.33;;;;;;;;5019756;28;45511;-57
2022/11/16 16:07:46;;;;;;;;;8.00;5.33;;;;;;;;5020115;28;46227;-58
2022/11/16 16:10:17;;;;;;;;;1.33;1.00;;;;;;;;5020160;28;45453;-57
2022/11/16 16:12:46;;;;;;;;;6.67;5.00;;;;;;;;5020156;28;45244;-58
2022/11/16 16:15:37;;;;;;;;;7.00;4.00;;;;;;;;5019276;28;45281;-57
2022/11/16 16:18:03;;;;;;;;;7.33;6.00;;;;;;;;5004191;28;45963;-57
2022/11/16 16:20:29;;;;;;;;;2.67;1.33;;;;;;;;5020552;28;45347;-57
2022/11/16 16:23:08;;;;;;;;;8.67;6.67;;;;;;;;5000873;28;45502;-57
2022/11/16 16:25:34;;;;;;;;;4.67;3.00;;;;;;;;5005605;28;45389;-57
2022/11/16 16:27:59;;;;;;;;;4.33;4.00;;;;;;;;5007672;28;45997;-58
2022/11/16 16:30:26;;;;;;;;;8.00;3.33;;;;;;;;5014070;28;45340;-58
2022/11/16 16:32:52;;;;;;;;;6.00;5.00;;;;;;;;5020091;28;45180;-57
2022/11/16 16:35:18;;;;;;;;;6.33;4.33;;;;;;;;5017509;28;45514;-57
2022/11/16 16:37:46;;;;;;;;;6.67;6.67;;;;;;;;5017299;28;47614;-57
2022/11/16 16:40:12;;;;;;;;;7.00;5.00;;;;;;;;5012685;28;45424;-57
2022/11/16 16:42:37;;;;;;;;;4.67;3.67;;;;;;;;5010291;28;45537;-56
2022/11/16 16:45:02;;;;;;;;;6.33;5.67;;;;;;;;5008650;28;45579;-57
2022/11/16 16:47:27;;;;;;;;;6.00;4.67;;;;;;;;5019465;28;45604;-56
2022/11/16 16:49:53;;;;;;;;;9.33;6.67;;;;;;;;5008728;28;45324;-56
2022/11/16 16:52:18;;;;;;;;;7.33;4.33;;;;;;;;5020255;28;45391;-56
2022/11/16 16:54:43;;;;;;;;;7.33;5.67;;;;;;;;5009979;28;45467;-57
2022/11/16 16:57:12;;;;;;;;;7.33;3.67;;;;;;;;5008739;28;46321;-56
2022/11/16 16:59:39;;;;;;;;;9.33;7.67;;;;;;;;5011918;28;45277;-56
2022/11/16 17:02:04;;;;;;;;;4.00;4.00;;;;;;;;5008821;28;45401;-56
2022/11/16 17:04:30;;;;;;;;;11.00;5.00;;;;;;;;5009295;28;45300;-56
2022/11/16 17:06:56;;;;;;;;;6.00;4.33;;;;;;;;5006478;28;45486;-56
2022/11/16 17:09:21;;;;;;;;;5.00;4.00;;;;;;;;5008242;28;45443;-55
2022/11/16 17:11:47;;;;;;;;;8.00;3.00;;;;;;;;5034121;28;44674;-55
2022/11/16 17:14:12;;;;;;;;;6.00;6.00;;;;;;;;5044953;28;37950;-59
2022/11/16 17:16:37;;;;;;;;;8.00;5.00;;;;;;;;5046775;28;19527;-57
2022/11/16 17:19:03;;;;;;;;;8.33;4.00;;;;;;;;5054801;28;8818;-56
2022/11/16 17:21:28;;;;;;;;;4.00;4.00;;;;;;;;5053158;28;9509;-58
2022/11/16 17:23:53;;;;;;;;;5.67;4.33;;;;;;;;5036981;28;44588;-57
2022/11/16 17:26:19;;;;;;;;;7.67;5.33;;;;;;;;5017430;28;45698;-57
2022/11/16 17:28:44;;;;;;;;;7.00;5.00;;;;;;;;5013348;28;45190;-56
2022/11/16 17:31:10;;;;;;;;;5.33;2.33;;;;;;;;5023115;28;45509;-55
2022/11/16 17:33:37;;;;;;;;;5.00;4.00;;;;;;;;5017390;28;45361;-51
2022/11/16 17:36:02;;;;;;;;;6.67;4.00;;;;;;;;5026403;28;46411;-53
2022/11/16 17:38:37;;;;;;;;;6.33;4.33;;;;;;;;5000869;28;45646;-54
2022/11/16 17:41:04;;;;;;;;;8.33;4.00;;;;;;;;5019760;28;45788;-52
2022/11/16 17:43:29;;;;;;;;;6.67;4.33;;;;;;;;5021436;28;45551;-56
2022/11/16 17:46:02;;;;;;;;;7.00;4.67;;;;;;;;5010995;28;45782;-55
2022/11/16 17:48:27;;;;;;;;;6.67;4.00;;;;;;;;5020656;28;45415;-54
2022/11/16 17:50:52;;;;;;;;;5.33;4.00;;;;;;;;5023000;28;45341;-55
2022/11/16 17:53:17;;;;;;;;;5.33;3.67;;;;;;;;5021429;28;45309;-55
2022/11/16 17:55:42;;;;;;;;;4.67;2.33;;;;;;;;5016681;28;46435;-52
2022/11/16 17:58:07;;;;;;;;;5.00;3.33;;;;;;;;5016455;28;45807;-55
2022/11/16 18:00:33;;;;;;;;;8.00;5.00;;;;;;;;5017216;28;45644;-53
2022/11/16 18:03:00;;;;;;;;;5.00;3.00;;;;;;;;5017617;28;45425;-54
2022/11/16 18:05:25;;;;;;;;;6.00;4.67;;;;;;;;5008398;28;46991;-53
2022/11/16 18:07:50;;;;;;;;;4.00;3.00;;;;;;;;5008469;28;45683;-53
2022/11/16 18:10:15;;;;;;;;;7.00;4.00;;;;;;;;5025642;28;45343;-52
2022/11/16 18:12:40;;;;;;;;;8.67;4.33;;;;;;;;5021525;28;45355;-57
2022/11/16 18:15:06;;;;;;;;;5.00;3.67;;;;;;;;5029412;28;45400;-56
2022/11/16 18:17:33;;;;;;;;;3.33;2.00;;;;;;;;5021200;28;45463;-56
2022/11/16 18:19:59;;;;;;;;;10.67;3.00;;;;;;;;5028241;28;45293;-56
2022/11/16 18:22:24;;;;;;;;;2.67;1.00;;;;;;;;5023206;28;45945;-59
2022/11/16 18:24:49;;;;;;;;;6.67;3.00;;;;;;;;5023882;28;46333;-56
2022/11/16 18:27:15;;;;;;;;;3.33;3.33;;;;;;;;4997817;28;45317;-56
2022/11/16 18:29:40;;;;;;;;;3.00;1.67;;;;;;;;5009842;28;45570;-56
2022/11/16 18:32:05;;;;;;;;;7.00;3.00;;;;;;;;5015973;28;45692;-57
2022/11/16 18:34:30;;;;;;;;;5.67;2.67;;;;;;;;5018570;28;46018;-54
2022/11/16 18:36:56;;;;;;;;;3.33;3.00;;;;;;;;5026937;28;45519;-54
2022/11/16 18:39:21;;;;;;;;;2.33;2.33;;;;;;;;5018222;28;45557;-57
2022/11/16 18:41:46;;;;;;;;;4.00;3.67;;;;;;;;5032004;28;45337;-56
2022/11/16 18:44:12;;;;;;;;;7.00;3.33;;;;;;;;5017838;28;46131;-56
2022/11/16 18:46:37;;;;;;;;;4.00;4.00;;;;;;;;5010091;28;45772;-56
2022/11/16 18:49:03;;;;;;;;;3.00;3.00;;;;;;;;5017467;28;45564;-58
2022/11/16 18:51:28;;;;;;;;;5.00;3.00;;;;;;;;5019719;28;45522;-56
2022/11/16 18:53:54;;;;;;;;;5.00;4.67;;;;;;;;5015826;28;45446;-56
2022/11/16 18:56:19;;;;;;;;;5.00;3.00;;;;;;;;5017973;28;45292;-57
2022/11/16 18:58:44;;;;;;;;;5.00;4.00;;;;;;;;5016131;28;45336;-56
2022/11/16 19:01:11;;;;;;;;;6.00;4.00;;;;;;;;5017650;28;45575;-57
2022/11/16 19:03:36;;;;;;;;;2.67;2.67;;;;;;;;5014520;28;46543;-57
2022/11/16 19:06:06;;;;;;;;;4.00;4.00;;;;;;;;5024526;28;45271;-57
2022/11/16 19:08:31;;;;;;;;;2.00;2.00;;;;;;;;5028794;28;47259;-58
2022/11/16 19:11:01;;;;;;;;;5.00;2.00;;;;;;;;5023333;28;45778;-58
2022/11/16 19:13:27;;;;;;;;;1.00;1.00;;;;;;;;5028733;28;45414;-58
2022/11/16 19:15:53;;;;;;;;;2.67;2.67;;;;;;;;5032551;28;45368;-59
2022/11/16 19:18:19;;;;;;;;;2.00;2.00;;;;;;;;5021801;28;45368;-58
2022/11/16 19:20:44;;;;;;;;;2.00;2.00;;;;;;;;5028481;28;45222;-58
2022/11/16 19:23:09;;;;;;;;;2.00;2.00;;;;;;;;5019986;28;46128;-58
2022/11/16 19:25:34;;;;;;;;;2.00;2.00;;;;;;;;5013509;28;45596;-58
2022/11/16 19:28:01;;;;;;;;;3.00;2.00;;;;;;;;5029223;28;45404;-58
2022/11/16 19:30:26;;;;;;;;;2.33;2.33;;;;;;;;5011845;28;45348;-57
2022/11/16 19:32:55;;;;;;;;;2.00;2.00;;;;;;;;5019968;28;45458;-58
2022/11/16 19:35:20;;;;;;;;;2.00;2.00;;;;;;;;5018435;28;45618;-57
2022/11/16 19:37:46;;;;;;;;;2.00;2.00;;;;;;;;5022352;28;45524;-55
2022/11/16 19:40:11;;;;;;;;;1.33;1.33;;;;;;;;5022022;28;45531;-58
2022/11/16 19:42:36;;;;;;;;;4.00;3.33;;;;;;;;5017758;28;45989;-56
2022/11/16 19:45:01;;;;;;;;;3.67;2.33;;;;;;;;5014167;28;45301;-58
2022/11/16 19:47:28;;;;;;;;;1.33;1.33;;;;;;;;5033626;28;166925;-57
2022/11/16 19:56:01;;;;;;;;;4.00;2.00;;;;;;;;4362666;28;233591913;-57
2022/11/16 20:05:02;;;;;;;;;;;;;;;;;;2;279083342;279083342;-56
2022/11/16 20:12:59;;;;;;;;;0.50;0.50;;;;;;;;2;234071653;234071653;-58
2022/11/16 20:21:59;;;;;;;;;2.50;2.50;;;;;;;;2;279083835;279083835;-57
2022/11/16 20:25:40;;;;;;;;;0.50;0.50;;;;;;;;173154;28;143903990;-57
2022/11/16 20:28:05;;;;;;;;;0.67;0.67;;;;;;;;5012163;28;45544;-56
2022/11/16 20:30:30;;;;;;;;;1.00;1.00;;;;;;;;4957064;28;1690067;-55
2022/11/16 20:32:56;;;;;;;;;3.33;2.00;;;;;;;;5022426;28;45475;-55
2022/11/16 20:35:21;;;;;;;;;1.00;1.00;;;;;;;;5020711;28;45269;-56
2022/11/16 20:37:46;;;;;;;;;2.00;2.00;;;;;;;;5018544;28;45527;-55
2022/11/16 20:40:11;;;;;;;;;3.25;1.00;;;;;;;;5024385;28;45353;-56
2022/11/16 20:42:36;;;;;;;;;1.00;1.00;;;;;;;;5025976;28;45570;-56
2022/11/16 20:45:02;;;;;;;;;1.00;1.00;;;;;;;;5011946;28;45285;-57
2022/11/16 20:47:27;;;;;;;;;1.00;1.00;;;;;;;;5023003;28;45341;-56
2022/11/16 20:49:52;;;;;;;;;0.00;0.00;;;;;;;;5020673;28;45416;-57
2022/11/16 20:52:17;;;;;;;;;1.00;1.00;;;;;;;;5000811;28;45309;-57